Fujairah, United Arab Emirates
Current Conditions -  °F | °C
As of 1:00 PM on Saturday 25 Oct 2014 (Local Time) from OMFJ Reporting Station
Scattered Clouds Scattered Clouds  
Wind Chill: 88°   Ceiling: Unl
Heat Index: 98°   Visibility: 4mi
Dew Point: 75°   Wind: 9mph
Humidity: 66%   Direction: 110°ESE
Pressure: 29.85"   Gusts: NA
Location:  25.34°N, 56.17°E
Report Text: OMFJ 250900Z 11008KT 070V150 6000 SCT025 31/24 Q1011 A2986
Loading
Personal Weather Stations






























Interactive Weather Map
Tropical Storm Tracking
New forecast layout! Learn more

10-Day Weather Forecast

Advertisements
Track Severe Weather on mobile